Airfield :







YOU CAN JOIN US ON...

 
LOGIN :

Register | Disclaimer

   EN    FR    IT 

 









Legend :    VFR   Marginal VFR   IFR   Intensive IFR   Very Intensive IFR
Visi :
Ceiling :
>= 8 km
>= 3000ft
5 to 8 km
1000 to 3000 ft
1500m to 5 km
500 to 1000 ft
800 to 1500m
200 to 500 ft
< 800m
< 200 ft
Symbols :   Thunderstorms  Fog  Heavy snow  Heavy precipitations  Wind > 20 kt






- Airport Elevation : 129 ft
- IATA code : YVP


CYVP - Kuujjuak

CURRENT METAR :
  • 161700Z 28007KT 15SM BKN028 BKN069 07/01 A2985 RMK CU5AC3 SLP113

EXPIRED METARs :
  • 161600Z 29007KT 15SM BKN021 BKN087 06/02 A2982 RMK CU6AC1 SLP103
  • 161500Z 29011G16KT 270V330 15SM BKN020 BKN097 06/01 A2980 RMK SC6AC1 SLP095

TAF AMD TAF CYVP
Valid from the 16 at 15:00 until the 17 at 00:00 UTC


161517Z 1615/1624 30012G22KT P6SM BKN015 BKN080
TEMPO 1615/1620 SCT015 BKN080
FM162000 28005KT P6SM BKN040
BECMG 1622/1624 10005KT RMK NXT FCST BY 161800Z
CZUL FIR / North America



MET'MAP, your aeronautical weather chart ! - Copyright ORBIFLY December 2007 - Disclaimer

ORBIFLY MET'MAP TEAM :

Programming & Development : Alexandra Zaïnal
Concept & original design : Baudouin d'Aumeries
Assistance for programming : Marc-Olivier Méhu
Technical & hardware support : Manuel Goepfert

Contact : metmap@orbifly.com




SOURCES & CREDITS :

   NOAA